sim
Sign-in with your pilot id or email,
or register
Callsign
Passwort

Schedule Details

Flight Number: OEO2654
Departure: Nuremberg Airport (EDDN) at 06:50
Arrival: Fuerteventura Airport (GCFV) at 11:40

Weather Information
Getting current METAR information for EDDN 212250Z VRB03KT CAVOK 13/M01 Q1016
Getting current METAR information for GCFV 212230Z AUTO 33007KT 300V360 9999 BKN027 19/13 Q1015

Schedule Frequency

Route Map